sensor_id;sensor_type;location;lat;lon;timestamp;P1;durP1;ratioP1;P2;durP2;ratioP2
11197;SDS011;5655;48.744;9.162;2023-04-06T00:01:16;9.98;;;6.97;;
11197;SDS011;5655;48.744;9.162;2023-04-06T00:03:41;12.40;;;7.93;;
11197;SDS011;5655;48.744;9.162;2023-04-06T00:06:07;11.00;;;7.65;;
11197;SDS011;5655;48.744;9.162;2023-04-06T00:08:32;14.75;;;8.07;;
11197;SDS011;5655;48.744;9.162;2023-04-06T00:10:58;12.07;;;7.70;;
11197;SDS011;5655;48.744;9.162;2023-04-06T00:13:23;10.55;;;7.25;;
11197;SDS011;5655;48.744;9.162;2023-04-06T00:15:48;11.10;;;6.85;;
11197;SDS011;5655;48.744;9.162;2023-04-06T00:18:14;12.68;;;7.57;;
11197;SDS011;5655;48.744;9.162;2023-04-06T00:20:39;9.80;;;7.15;;
11197;SDS011;5655;48.744;9.162;2023-04-06T00:23:05;12.98;;;7.50;;
11197;SDS011;5655;48.744;9.162;2023-04-06T00:25:30;11.75;;;8.18;;
11197;SDS011;5655;48.744;9.162;2023-04-06T00:27:56;9.95;;;7.10;;
11197;SDS011;5655;48.744;9.162;2023-04-06T00:30:21;12.95;;;8.00;;
11197;SDS011;5655;48.744;9.162;2023-04-06T00:32:47;10.32;;;7.18;;
11197;SDS011;5655;48.744;9.162;2023-04-06T00:35:12;13.82;;;7.53;;
11197;SDS011;5655;48.744;9.162;2023-04-06T00:37:37;11.40;;;7.85;;
11197;SDS011;5655;48.744;9.162;2023-04-06T00:40:03;12.15;;;6.88;;
11197;SDS011;5655;48.744;9.162;2023-04-06T00:42:28;10.63;;;7.32;;
11197;SDS011;5655;48.744;9.162;2023-04-06T00:44:58;10.55;;;7.50;;
11197;SDS011;5655;48.744;9.162;2023-04-06T00:47:25;9.93;;;7.25;;
11197;SDS011;5655;48.744;9.162;2023-04-06T00:49:51;10.40;;;7.25;;
11197;SDS011;5655;48.744;9.162;2023-04-06T00:52:17;11.65;;;7.78;;
11197;SDS011;5655;48.744;9.162;2023-04-06T00:54:43;11.93;;;7.13;;
11197;SDS011;5655;48.744;9.162;2023-04-06T00:57:09;11.07;;;7.47;;
11197;SDS011;5655;48.744;9.162;2023-04-06T00:59:35;11.73;;;7.15;;
11197;SDS011;5655;48.744;9.162;2023-04-06T01:02:00;12.88;;;7.22;;
11197;SDS011;5655;48.744;9.162;2023-04-06T01:04:26;12.93;;;7.72;;
11197;SDS011;5655;48.744;9.162;2023-04-06T01:06:52;11.68;;;7.30;;
11197;SDS011;5655;48.744;9.162;2023-04-06T01:09:17;12.93;;;7.95;;
11197;SDS011;5655;48.744;9.162;2023-04-06T01:11:43;11.90;;;8.25;;
11197;SDS011;5655;48.744;9.162;2023-04-06T01:14:08;10.88;;;7.35;;
11197;SDS011;5655;48.744;9.162;2023-04-06T01:16:34;9.30;;;7.03;;
11197;SDS011;5655;48.744;9.162;2023-04-06T01:19:00;11.57;;;7.65;;
11197;SDS011;5655;48.744;9.162;2023-04-06T01:21:26;11.60;;;7.85;;
11197;SDS011;5655;48.744;9.162;2023-04-06T01:23:51;10.13;;;7.43;;
11197;SDS011;5655;48.744;9.162;2023-04-06T01:26:17;11.80;;;7.43;;
11197;SDS011;5655;48.744;9.162;2023-04-06T01:28:42;11.52;;;8.07;;
11197;SDS011;5655;48.744;9.162;2023-04-06T01:31:09;8.80;;;7.30;;
11197;SDS011;5655;48.744;9.162;2023-04-06T01:33:35;12.20;;;7.70;;
11197;SDS011;5655;48.744;9.162;2023-04-06T01:36:01;10.20;;;7.22;;
11197;SDS011;5655;48.744;9.162;2023-04-06T01:38:26;11.40;;;7.90;;
11197;SDS011;5655;48.744;9.162;2023-04-06T01:40:52;13.15;;;7.13;;
11197;SDS011;5655;48.744;9.162;2023-04-06T01:43:18;14.25;;;8.07;;
11197;SDS011;5655;48.744;9.162;2023-04-06T01:45:43;10.82;;;7.35;;
11197;SDS011;5655;48.744;9.162;2023-04-06T01:48:09;10.40;;;7.60;;
11197;SDS011;5655;48.744;9.162;2023-04-06T01:50:35;10.43;;;7.25;;
11197;SDS011;5655;48.744;9.162;2023-04-06T01:53:00;11.75;;;8.38;;
11197;SDS011;5655;48.744;9.162;2023-04-06T01:55:25;16.23;;;7.95;;
11197;SDS011;5655;48.744;9.162;2023-04-06T01:57:51;14.32;;;7.60;;
11197;SDS011;5655;48.744;9.162;2023-04-06T02:00:16;11.60;;;7.28;;
11197;SDS011;5655;48.744;9.162;2023-04-06T02:02:41;9.25;;;6.53;;
11197;SDS011;5655;48.744;9.162;2023-04-06T02:05:07;13.05;;;7.53;;
11197;SDS011;5655;48.744;9.162;2023-04-06T02:07:33;13.73;;;7.68;;
11197;SDS011;5655;48.744;9.162;2023-04-06T02:09:58;11.73;;;7.88;;
11197;SDS011;5655;48.744;9.162;2023-04-06T02:12:24;11.52;;;7.07;;
11197;SDS011;5655;48.744;9.162;2023-04-06T02:14:49;9.98;;;7.03;;
11197;SDS011;5655;48.744;9.162;2023-04-06T02:17:15;11.27;;;7.20;;
11197;SDS011;5655;48.744;9.162;2023-04-06T02:19:40;10.35;;;7.53;;
11197;SDS011;5655;48.744;9.162;2023-04-06T02:22:05;10.55;;;7.15;;
11197;SDS011;5655;48.744;9.162;2023-04-06T02:24:31;10.98;;;7.50;;
11197;SDS011;5655;48.744;9.162;2023-04-06T02:26:57;13.85;;;7.68;;
11197;SDS011;5655;48.744;9.162;2023-04-06T02:29:22;9.88;;;7.63;;
11197;SDS011;5655;48.744;9.162;2023-04-06T02:31:47;12.57;;;7.72;;
11197;SDS011;5655;48.744;9.162;2023-04-06T02:34:13;12.43;;;7.43;;
11197;SDS011;5655;48.744;9.162;2023-04-06T02:36:43;11.98;;;7.57;;
11197;SDS011;5655;48.744;9.162;2023-04-06T02:39:09;10.75;;;7.45;;
11197;SDS011;5655;48.744;9.162;2023-04-06T02:41:35;11.95;;;7.80;;
11197;SDS011;5655;48.744;9.162;2023-04-06T02:44:00;12.93;;;7.97;;
11197;SDS011;5655;48.744;9.162;2023-04-06T02:46:26;11.40;;;8.02;;
11197;SDS011;5655;48.744;9.162;2023-04-06T02:48:51;12.95;;;8.18;;
11197;SDS011;5655;48.744;9.162;2023-04-06T02:51:16;10.52;;;7.43;;
11197;SDS011;5655;48.744;9.162;2023-04-06T02:53:42;11.85;;;7.95;;
11197;SDS011;5655;48.744;9.162;2023-04-06T02:56:07;16.30;;;8.40;;
11197;SDS011;5655;48.744;9.162;2023-04-06T02:58:32;12.48;;;7.50;;
11197;SDS011;5655;48.744;9.162;2023-04-06T03:00:58;16.23;;;8.77;;
11197;SDS011;5655;48.744;9.162;2023-04-06T03:03:23;12.40;;;8.07;;
11197;SDS011;5655;48.744;9.162;2023-04-06T03:05:48;16.00;;;8.77;;
11197;SDS011;5655;48.744;9.162;2023-04-06T03:08:14;12.98;;;7.93;;
11197;SDS011;5655;48.744;9.162;2023-04-06T03:10:40;12.85;;;7.60;;
11197;SDS011;5655;48.744;9.162;2023-04-06T03:13:05;14.00;;;8.25;;
11197;SDS011;5655;48.744;9.162;2023-04-06T03:15:31;13.07;;;8.20;;
11197;SDS011;5655;48.744;9.162;2023-04-06T03:17:56;10.63;;;7.68;;
11197;SDS011;5655;48.744;9.162;2023-04-06T03:20:22;12.18;;;7.70;;
11197;SDS011;5655;48.744;9.162;2023-04-06T03:22:47;14.23;;;7.43;;
11197;SDS011;5655;48.744;9.162;2023-04-06T03:25:13;16.47;;;8.40;;
11197;SDS011;5655;48.744;9.162;2023-04-06T03:27:38;11.98;;;7.82;;
11197;SDS011;5655;48.744;9.162;2023-04-06T03:30:04;10.80;;;7.68;;
11197;SDS011;5655;48.744;9.162;2023-04-06T03:32:30;11.60;;;7.55;;
11197;SDS011;5655;48.744;9.162;2023-04-06T03:34:55;13.57;;;7.60;;
11197;SDS011;5655;48.744;9.162;2023-04-06T03:37:20;11.55;;;7.80;;
11197;SDS011;5655;48.744;9.162;2023-04-06T03:39:46;11.52;;;7.63;;
11197;SDS011;5655;48.744;9.162;2023-04-06T03:42:11;11.05;;;7.90;;
11197;SDS011;5655;48.744;9.162;2023-04-06T03:44:36;12.18;;;8.18;;
11197;SDS011;5655;48.744;9.162;2023-04-06T03:47:02;13.07;;;8.10;;
11197;SDS011;5655;48.744;9.162;2023-04-06T03:49:27;12.65;;;8.27;;
11197;SDS011;5655;48.744;9.162;2023-04-06T03:51:53;10.63;;;7.72;;
11197;SDS011;5655;48.744;9.162;2023-04-06T03:54:18;12.20;;;7.95;;
11197;SDS011;5655;48.744;9.162;2023-04-06T03:56:43;10.95;;;7.65;;
11197;SDS011;5655;48.744;9.162;2023-04-06T03:59:09;12.10;;;8.07;;
11197;SDS011;5655;48.744;9.162;2023-04-06T04:01:34;9.88;;;6.93;;
11197;SDS011;5655;48.744;9.162;2023-04-06T04:04:00;11.57;;;7.45;;
11197;SDS011;5655;48.744;9.162;2023-04-06T04:06:25;9.55;;;8.40;;
11197;SDS011;5655;48.744;9.162;2023-04-06T04:08:50;10.77;;;7.65;;
11197;SDS011;5655;48.744;9.162;2023-04-06T04:11:16;11.32;;;7.22;;
11197;SDS011;5655;48.744;9.162;2023-04-06T04:13:41;8.93;;;6.82;;
11197;SDS011;5655;48.744;9.162;2023-04-06T04:16:06;11.65;;;7.25;;
11197;SDS011;5655;48.744;9.162;2023-04-06T04:18:32;12.93;;;8.38;;
11197;SDS011;5655;48.744;9.162;2023-04-06T04:20:57;10.60;;;7.32;;
11197;SDS011;5655;48.744;9.162;2023-04-06T04:23:22;11.73;;;7.18;;
11197;SDS011;5655;48.744;9.162;2023-04-06T04:25:48;10.15;;;7.90;;
11197;SDS011;5655;48.744;9.162;2023-04-06T04:28:13;12.40;;;7.63;;
11197;SDS011;5655;48.744;9.162;2023-04-06T04:30:38;11.80;;;7.45;;
11197;SDS011;5655;48.744;9.162;2023-04-06T04:33:04;11.13;;;7.43;;
11197;SDS011;5655;48.744;9.162;2023-04-06T04:35:29;11.40;;;7.70;;
11197;SDS011;5655;48.744;9.162;2023-04-06T04:37:55;11.55;;;7.85;;
11197;SDS011;5655;48.744;9.162;2023-04-06T04:40:21;11.05;;;7.18;;
11197;SDS011;5655;48.744;9.162;2023-04-06T04:42:46;11.75;;;7.85;;
11197;SDS011;5655;48.744;9.162;2023-04-06T04:45:12;11.05;;;7.80;;
11197;SDS011;5655;48.744;9.162;2023-04-06T04:47:37;12.75;;;8.00;;
11197;SDS011;5655;48.744;9.162;2023-04-06T04:50:03;11.88;;;8.23;;
11197;SDS011;5655;48.744;9.162;2023-04-06T04:52:28;14.00;;;8.52;;
11197;SDS011;5655;48.744;9.162;2023-04-06T04:54:54;10.85;;;7.18;;
11197;SDS011;5655;48.744;9.162;2023-04-06T04:57:19;12.55;;;7.97;;
11197;SDS011;5655;48.744;9.162;2023-04-06T04:59:44;12.60;;;7.80;;
11197;SDS011;5655;48.744;9.162;2023-04-06T05:02:10;10.88;;;7.28;;
11197;SDS011;5655;48.744;9.162;2023-04-06T05:04:35;16.92;;;8.30;;
11197;SDS011;5655;48.744;9.162;2023-04-06T05:07:07;11.73;;;7.20;;
11197;SDS011;5655;48.744;9.162;2023-04-06T05:09:33;13.27;;;8.02;;
11197;SDS011;5655;48.744;9.162;2023-04-06T05:11:59;12.73;;;8.25;;
11197;SDS011;5655;48.744;9.162;2023-04-06T05:14:25;11.82;;;7.70;;
11197;SDS011;5655;48.744;9.162;2023-04-06T05:16:53;12.27;;;7.68;;
11197;SDS011;5655;48.744;9.162;2023-04-06T05:19:19;12.40;;;7.50;;
11197;SDS011;5655;48.744;9.162;2023-04-06T05:21:44;11.32;;;7.40;;
11197;SDS011;5655;48.744;9.162;2023-04-06T05:24:10;12.65;;;8.30;;
11197;SDS011;5655;48.744;9.162;2023-04-06T05:26:35;13.32;;;8.75;;
11197;SDS011;5655;48.744;9.162;2023-04-06T05:29:01;13.52;;;7.43;;
11197;SDS011;5655;48.744;9.162;2023-04-06T05:31:26;18.15;;;8.40;;
11197;SDS011;5655;48.744;9.162;2023-04-06T05:33:51;12.20;;;8.20;;
11197;SDS011;5655;48.744;9.162;2023-04-06T05:36:17;16.90;;;9.30;;
11197;SDS011;5655;48.744;9.162;2023-04-06T05:38:42;16.15;;;9.18;;
11197;SDS011;5655;48.744;9.162;2023-04-06T05:41:08;12.77;;;8.85;;
11197;SDS011;5655;48.744;9.162;2023-04-06T05:43:33;14.32;;;9.25;;
11197;SDS011;5655;48.744;9.162;2023-04-06T05:45:58;11.32;;;7.90;;
11197;SDS011;5655;48.744;9.162;2023-04-06T05:48:24;13.02;;;7.88;;
11197;SDS011;5655;48.744;9.162;2023-04-06T05:50:50;13.82;;;7.90;;
11197;SDS011;5655;48.744;9.162;2023-04-06T05:53:15;14.60;;;8.57;;
11197;SDS011;5655;48.744;9.162;2023-04-06T05:55:41;10.38;;;7.90;;
11197;SDS011;5655;48.744;9.162;2023-04-06T05:58:06;11.50;;;8.20;;
11197;SDS011;5655;48.744;9.162;2023-04-06T06:00:32;17.20;;;9.70;;
11197;SDS011;5655;48.744;9.162;2023-04-06T06:02:57;18.95;;;9.63;;
11197;SDS011;5655;48.744;9.162;2023-04-06T06:05:23;16.23;;;8.65;;
11197;SDS011;5655;48.744;9.162;2023-04-06T06:07:48;12.45;;;8.80;;
11197;SDS011;5655;48.744;9.162;2023-04-06T06:10:14;21.70;;;8.63;;
11197;SDS011;5655;48.744;9.162;2023-04-06T06:12:39;12.95;;;8.55;;
11197;SDS011;5655;48.744;9.162;2023-04-06T06:15:04;17.52;;;8.38;;
11197;SDS011;5655;48.744;9.162;2023-04-06T06:17:31;14.10;;;7.78;;
11197;SDS011;5655;48.744;9.162;2023-04-06T06:19:56;15.50;;;8.00;;
11197;SDS011;5655;48.744;9.162;2023-04-06T06:22:22;9.95;;;7.25;;
11197;SDS011;5655;48.744;9.162;2023-04-06T06:24:47;16.98;;;8.73;;
11197;SDS011;5655;48.744;9.162;2023-04-06T06:27:14;11.90;;;8.20;;
11197;SDS011;5655;48.744;9.162;2023-04-06T06:29:40;12.07;;;7.50;;
11197;SDS011;5655;48.744;9.162;2023-04-06T06:32:06;13.50;;;8.10;;
11197;SDS011;5655;48.744;9.162;2023-04-06T06:34:33;11.85;;;7.60;;
11197;SDS011;5655;48.744;9.162;2023-04-06T06:36:59;10.90;;;7.28;;
11197;SDS011;5655;48.744;9.162;2023-04-06T06:39:25;12.85;;;7.75;;
11197;SDS011;5655;48.744;9.162;2023-04-06T06:41:51;11.90;;;7.88;;
11197;SDS011;5655;48.744;9.162;2023-04-06T06:44:16;16.05;;;8.07;;
11197;SDS011;5655;48.744;9.162;2023-04-06T06:46:42;16.77;;;8.23;;
11197;SDS011;5655;48.744;9.162;2023-04-06T06:49:07;16.02;;;8.75;;
11197;SDS011;5655;48.744;9.162;2023-04-06T06:51:33;12.65;;;8.93;;
11197;SDS011;5655;48.744;9.162;2023-04-06T06:53:58;12.43;;;8.18;;
11197;SDS011;5655;48.744;9.162;2023-04-06T06:56:24;13.55;;;8.40;;
11197;SDS011;5655;48.744;9.162;2023-04-06T06:58:50;15.23;;;8.57;;
11197;SDS011;5655;48.744;9.162;2023-04-06T07:01:16;19.85;;;8.68;;
11197;SDS011;5655;48.744;9.162;2023-04-06T07:03:41;12.40;;;7.38;;
11197;SDS011;5655;48.744;9.162;2023-04-06T07:06:07;26.65;;;9.60;;
11197;SDS011;5655;48.744;9.162;2023-04-06T07:08:32;17.35;;;8.57;;
11197;SDS011;5655;48.744;9.162;2023-04-06T07:10:57;12.30;;;8.20;;
11197;SDS011;5655;48.744;9.162;2023-04-06T07:13:23;14.23;;;8.45;;
11197;SDS011;5655;48.744;9.162;2023-04-06T07:15:49;14.60;;;8.00;;
11197;SDS011;5655;48.744;9.162;2023-04-06T07:18:15;14.30;;;8.88;;
11197;SDS011;5655;48.744;9.162;2023-04-06T07:20:44;12.10;;;8.32;;
11197;SDS011;5655;48.744;9.162;2023-04-06T07:23:10;18.15;;;9.23;;
11197;SDS011;5655;48.744;9.162;2023-04-06T07:25:35;15.18;;;9.15;;
11197;SDS011;5655;48.744;9.162;2023-04-06T07:28:01;14.38;;;9.07;;
11197;SDS011;5655;48.744;9.162;2023-04-06T07:30:27;14.65;;;8.60;;
11197;SDS011;5655;48.744;9.162;2023-04-06T07:32:53;12.95;;;8.43;;
11197;SDS011;5655;48.744;9.162;2023-04-06T07:35:20;12.63;;;8.82;;
11197;SDS011;5655;48.744;9.162;2023-04-06T07:37:46;10.18;;;7.68;;
11197;SDS011;5655;48.744;9.162;2023-04-06T07:40:11;13.80;;;9.40;;
11197;SDS011;5655;48.744;9.162;2023-04-06T07:42:37;15.40;;;8.70;;
11197;SDS011;5655;48.744;9.162;2023-04-06T07:45:02;12.20;;;8.95;;
11197;SDS011;5655;48.744;9.162;2023-04-06T07:47:28;14.98;;;8.65;;
11197;SDS011;5655;48.744;9.162;2023-04-06T07:49:54;13.50;;;8.15;;
11197;SDS011;5655;48.744;9.162;2023-04-06T07:52:21;14.73;;;8.38;;
11197;SDS011;5655;48.744;9.162;2023-04-06T07:54:46;15.23;;;8.02;;
11197;SDS011;5655;48.744;9.162;2023-04-06T07:57:13;12.85;;;8.00;;
11197;SDS011;5655;48.744;9.162;2023-04-06T07:59:38;11.02;;;8.40;;
11197;SDS011;5655;48.744;9.162;2023-04-06T08:02:04;11.02;;;7.57;;
11197;SDS011;5655;48.744;9.162;2023-04-06T08:04:30;13.88;;;8.48;;
11197;SDS011;5655;48.744;9.162;2023-04-06T08:06:55;15.40;;;8.20;;
11197;SDS011;5655;48.744;9.162;2023-04-06T08:09:21;14.98;;;8.07;;
11197;SDS011;5655;48.744;9.162;2023-04-06T08:11:46;16.27;;;7.82;;
11197;SDS011;5655;48.744;9.162;2023-04-06T08:14:13;12.07;;;8.27;;
11197;SDS011;5655;48.744;9.162;2023-04-06T08:16:40;13.77;;;8.80;;
11197;SDS011;5655;48.744;9.162;2023-04-06T08:19:05;12.27;;;8.35;;
11197;SDS011;5655;48.744;9.162;2023-04-06T08:21:32;12.77;;;8.57;;
11197;SDS011;5655;48.744;9.162;2023-04-06T08:23:58;16.77;;;9.55;;
11197;SDS011;5655;48.744;9.162;2023-04-06T08:26:23;18.95;;;9.50;;
11197;SDS011;5655;48.744;9.162;2023-04-06T08:28:48;19.02;;;8.40;;
11197;SDS011;5655;48.744;9.162;2023-04-06T08:31:14;15.20;;;8.70;;
11197;SDS011;5655;48.744;9.162;2023-04-06T08:33:39;15.60;;;8.95;;
11197;SDS011;5655;48.744;9.162;2023-04-06T08:36:11;19.13;;;9.38;;
11197;SDS011;5655;48.744;9.162;2023-04-06T08:38:39;17.85;;;9.25;;
11197;SDS011;5655;48.744;9.162;2023-04-06T08:41:08;13.77;;;8.32;;
11197;SDS011;5655;48.744;9.162;2023-04-06T08:43:40;12.35;;;8.27;;
11197;SDS011;5655;48.744;9.162;2023-04-06T08:46:14;32.67;;;9.23;;
11197;SDS011;5655;48.744;9.162;2023-04-06T08:48:40;18.17;;;9.07;;
11197;SDS011;5655;48.744;9.162;2023-04-06T08:51:07;12.05;;;7.90;;
11197;SDS011;5655;48.744;9.162;2023-04-06T08:53:37;14.23;;;8.48;;
11197;SDS011;5655;48.744;9.162;2023-04-06T08:56:02;40.22;;;10.30;;
11197;SDS011;5655;48.744;9.162;2023-04-06T08:58:31;21.23;;;9.07;;
11197;SDS011;5655;48.744;9.162;2023-04-06T09:00:59;16.88;;;9.15;;
11197;SDS011;5655;48.744;9.162;2023-04-06T09:03:26;16.23;;;8.82;;
11197;SDS011;5655;48.744;9.162;2023-04-06T09:05:53;14.20;;;8.45;;
11197;SDS011;5655;48.744;9.162;2023-04-06T09:08:19;15.10;;;9.02;;
11197;SDS011;5655;48.744;9.162;2023-04-06T09:10:44;12.27;;;8.82;;
11197;SDS011;5655;48.744;9.162;2023-04-06T09:13:10;13.20;;;7.78;;
11197;SDS011;5655;48.744;9.162;2023-04-06T09:15:36;14.20;;;7.35;;
11197;SDS011;5655;48.744;9.162;2023-04-06T09:18:02;10.32;;;7.05;;
11197;SDS011;5655;48.744;9.162;2023-04-06T09:20:27;9.82;;;7.25;;
11197;SDS011;5655;48.744;9.162;2023-04-06T09:22:55;13.52;;;7.90;;
11197;SDS011;5655;48.744;9.162;2023-04-06T09:25:22;10.20;;;7.03;;
11197;SDS011;5655;48.744;9.162;2023-04-06T09:27:57;12.30;;;7.10;;
11197;SDS011;5655;48.744;9.162;2023-04-06T09:30:25;15.60;;;8.43;;
11197;SDS011;5655;48.744;9.162;2023-04-06T09:32:52;11.90;;;7.47;;
11197;SDS011;5655;48.744;9.162;2023-04-06T09:35:19;9.13;;;6.97;;
11197;SDS011;5655;48.744;9.162;2023-04-06T09:37:46;17.50;;;8.43;;
11197;SDS011;5655;48.744;9.162;2023-04-06T09:40:13;11.80;;;7.38;;
11197;SDS011;5655;48.744;9.162;2023-04-06T09:42:41;9.82;;;6.55;;
11197;SDS011;5655;48.744;9.162;2023-04-06T09:45:07;10.18;;;6.78;;
11197;SDS011;5655;48.744;9.162;2023-04-06T09:47:35;10.50;;;6.82;;
11197;SDS011;5655;48.744;9.162;2023-04-06T09:50:01;10.90;;;7.35;;
11197;SDS011;5655;48.744;9.162;2023-04-06T09:52:31;12.15;;;6.88;;
11197;SDS011;5655;48.744;9.162;2023-04-06T09:55:02;10.00;;;6.20;;
11197;SDS011;5655;48.744;9.162;2023-04-06T09:57:31;31.65;;;8.35;;
11197;SDS011;5655;48.744;9.162;2023-04-06T10:00:06;10.48;;;5.43;;
11197;SDS011;5655;48.744;9.162;2023-04-06T10:08:28;9.77;;;6.60;;
11197;SDS011;5655;48.744;9.162;2023-04-06T10:10:54;9.48;;;6.50;;
11197;SDS011;5655;48.744;9.162;2023-04-06T10:13:20;9.95;;;6.82;;
11197;SDS011;5655;48.744;9.162;2023-04-06T10:15:45;8.15;;;6.53;;
11197;SDS011;5655;48.744;9.162;2023-04-06T10:18:11;8.88;;;6.75;;
11197;SDS011;5655;48.744;9.162;2023-04-06T10:20:42;9.18;;;6.60;;
11197;SDS011;5655;48.744;9.162;2023-04-06T10:25:52;8.95;;;5.85;;
11197;SDS011;5655;48.744;9.162;2023-04-06T10:28:19;7.95;;;6.07;;
11197;SDS011;5655;48.744;9.162;2023-04-06T10:30:45;9.23;;;6.55;;
11197;SDS011;5655;48.744;9.162;2023-04-06T10:33:18;23.15;;;12.93;;
11197;SDS011;5655;48.744;9.162;2023-04-06T10:35:44;12.23;;;6.07;;
11197;SDS011;5655;48.744;9.162;2023-04-06T10:38:10;9.15;;;6.15;;
11197;SDS011;5655;48.744;9.162;2023-04-06T10:40:38;8.95;;;6.72;;
11197;SDS011;5655;48.744;9.162;2023-04-06T10:43:07;11.93;;;7.38;;
11197;SDS011;5655;48.744;9.162;2023-04-06T10:45:33;11.80;;;6.63;;
11197;SDS011;5655;48.744;9.162;2023-04-06T10:48:00;8.25;;;6.57;;
11197;SDS011;5655;48.744;9.162;2023-04-06T10:50:25;10.75;;;7.60;;
11197;SDS011;5655;48.744;9.162;2023-04-06T10:53:00;7.72;;;6.07;;
11197;SDS011;5655;48.744;9.162;2023-04-06T10:55:28;9.07;;;6.40;;
11197;SDS011;5655;48.744;9.162;2023-04-06T10:57:54;8.90;;;6.68;;
11197;SDS011;5655;48.744;9.162;2023-04-06T11:00:19;7.38;;;5.90;;
11197;SDS011;5655;48.744;9.162;2023-04-06T11:02:45;8.40;;;6.35;;
11197;SDS011;5655;48.744;9.162;2023-04-06T11:05:11;12.57;;;7.47;;
11197;SDS011;5655;48.744;9.162;2023-04-06T11:07:38;10.55;;;6.20;;
11197;SDS011;5655;48.744;9.162;2023-04-06T11:10:05;8.45;;;5.95;;
11197;SDS011;5655;48.744;9.162;2023-04-06T11:12:31;12.10;;;6.72;;
11197;SDS011;5655;48.744;9.162;2023-04-06T11:14:57;10.48;;;6.70;;
11197;SDS011;5655;48.744;9.162;2023-04-06T11:17:31;7.95;;;6.20;;
11197;SDS011;5655;48.744;9.162;2023-04-06T11:19:58;15.82;;;6.43;;
11197;SDS011;5655;48.744;9.162;2023-04-06T11:22:24;8.45;;;6.57;;
11197;SDS011;5655;48.744;9.162;2023-04-06T11:24:50;9.77;;;6.25;;
11197;SDS011;5655;48.744;9.162;2023-04-06T11:27:17;8.82;;;6.38;;
11197;SDS011;5655;48.744;9.162;2023-04-06T11:29:43;10.25;;;6.60;;
11197;SDS011;5655;48.744;9.162;2023-04-06T11:32:19;8.93;;;6.32;;
11197;SDS011;5655;48.744;9.162;2023-04-06T11:34:45;6.82;;;5.47;;
11197;SDS011;5655;48.744;9.162;2023-04-06T11:37:12;9.38;;;6.43;;
11197;SDS011;5655;48.744;9.162;2023-04-06T11:39:48;8.88;;;6.40;;
11197;SDS011;5655;48.744;9.162;2023-04-06T11:42:27;7.63;;;5.95;;
11197;SDS011;5655;48.744;9.162;2023-04-06T11:44:55;7.78;;;6.43;;
11197;SDS011;5655;48.744;9.162;2023-04-06T11:47:28;7.22;;;5.70;;
11197;SDS011;5655;48.744;9.162;2023-04-06T11:49:55;7.80;;;6.22;;
11197;SDS011;5655;48.744;9.162;2023-04-06T11:52:24;8.48;;;6.22;;
11197;SDS011;5655;48.744;9.162;2023-04-06T11:54:53;7.15;;;5.85;;
11197;SDS011;5655;48.744;9.162;2023-04-06T11:57:21;7.18;;;5.20;;
11197;SDS011;5655;48.744;9.162;2023-04-06T11:59:51;6.97;;;5.47;;
11197;SDS011;5655;48.744;9.162;2023-04-06T12:02:17;8.95;;;6.75;;
11197;SDS011;5655;48.744;9.162;2023-04-06T12:04:43;8.65;;;6.05;;
11197;SDS011;5655;48.744;9.162;2023-04-06T12:07:09;10.73;;;6.43;;
11197;SDS011;5655;48.744;9.162;2023-04-06T12:09:35;6.93;;;5.47;;
11197;SDS011;5655;48.744;9.162;2023-04-06T12:12:01;7.47;;;5.72;;
11197;SDS011;5655;48.744;9.162;2023-04-06T12:14:27;8.05;;;5.47;;
11197;SDS011;5655;48.744;9.162;2023-04-06T12:16:53;7.32;;;5.43;;
11197;SDS011;5655;48.744;9.162;2023-04-06T12:19:18;8.35;;;6.00;;
11197;SDS011;5655;48.744;9.162;2023-04-06T12:21:44;10.18;;;5.65;;
11197;SDS011;5655;48.744;9.162;2023-04-06T12:24:09;7.03;;;5.43;;
11197;SDS011;5655;48.744;9.162;2023-04-06T12:26:35;7.38;;;5.80;;
11197;SDS011;5655;48.744;9.162;2023-04-06T12:29:02;8.90;;;5.95;;
11197;SDS011;5655;48.744;9.162;2023-04-06T12:31:32;10.50;;;6.82;;
11197;SDS011;5655;48.744;9.162;2023-04-06T12:33:59;7.20;;;6.18;;
11197;SDS011;5655;48.744;9.162;2023-04-06T12:36:26;7.43;;;5.68;;
11197;SDS011;5655;48.744;9.162;2023-04-06T12:38:51;8.02;;;5.78;;
11197;SDS011;5655;48.744;9.162;2023-04-06T12:41:17;6.72;;;5.32;;
11197;SDS011;5655;48.744;9.162;2023-04-06T12:43:43;8.77;;;5.55;;
11197;SDS011;5655;48.744;9.162;2023-04-06T12:46:10;6.97;;;5.38;;
11197;SDS011;5655;48.744;9.162;2023-04-06T12:48:36;9.10;;;5.68;;
11197;SDS011;5655;48.744;9.162;2023-04-06T12:51:03;15.25;;;6.10;;
11197;SDS011;5655;48.744;9.162;2023-04-06T12:53:29;10.77;;;5.28;;
11197;SDS011;5655;48.744;9.162;2023-04-06T12:55:55;20.17;;;5.90;;
11197;SDS011;5655;48.744;9.162;2023-04-06T12:58:21;11.65;;;5.65;;
11197;SDS011;5655;48.744;9.162;2023-04-06T13:00:48;7.85;;;5.82;;
11197;SDS011;5655;48.744;9.162;2023-04-06T13:03:15;8.38;;;5.47;;
11197;SDS011;5655;48.744;9.162;2023-04-06T13:05:43;6.13;;;5.43;;
11197;SDS011;5655;48.744;9.162;2023-04-06T13:08:12;8.95;;;5.40;;
11197;SDS011;5655;48.744;9.162;2023-04-06T13:10:43;6.82;;;5.10;;
11197;SDS011;5655;48.744;9.162;2023-04-06T13:13:09;10.73;;;5.57;;
11197;SDS011;5655;48.744;9.162;2023-04-06T13:15:35;9.30;;;6.30;;
11197;SDS011;5655;48.744;9.162;2023-04-06T13:18:01;8.55;;;5.40;;
11197;SDS011;5655;48.744;9.162;2023-04-06T13:20:27;6.63;;;5.32;;
11197;SDS011;5655;48.744;9.162;2023-04-06T13:22:52;8.20;;;5.07;;
11197;SDS011;5655;48.744;9.162;2023-04-06T13:25:18;8.05;;;5.45;;
11197;SDS011;5655;48.744;9.162;2023-04-06T13:27:43;9.07;;;5.50;;
11197;SDS011;5655;48.744;9.162;2023-04-06T13:30:11;7.55;;;5.32;;
11197;SDS011;5655;48.744;9.162;2023-04-06T13:32:37;7.63;;;5.03;;
11197;SDS011;5655;48.744;9.162;2023-04-06T13:35:02;7.72;;;5.55;;
11197;SDS011;5655;48.744;9.162;2023-04-06T13:37:28;7.70;;;5.30;;
11197;SDS011;5655;48.744;9.162;2023-04-06T13:39:54;7.20;;;5.43;;
11197;SDS011;5655;48.744;9.162;2023-04-06T13:42:19;7.32;;;5.30;;
11197;SDS011;5655;48.744;9.162;2023-04-06T13:44:45;7.03;;;4.97;;
11197;SDS011;5655;48.744;9.162;2023-04-06T13:47:11;6.57;;;4.60;;
11197;SDS011;5655;48.744;9.162;2023-04-06T13:49:37;10.85;;;4.93;;
11197;SDS011;5655;48.744;9.162;2023-04-06T13:52:03;9.90;;;5.47;;
11197;SDS011;5655;48.744;9.162;2023-04-06T13:54:28;7.30;;;5.00;;
11197;SDS011;5655;48.744;9.162;2023-04-06T13:56:54;7.13;;;5.65;;
11197;SDS011;5655;48.744;9.162;2023-04-06T13:59:20;6.15;;;5.15;;
11197;SDS011;5655;48.744;9.162;2023-04-06T14:01:45;8.50;;;5.43;;
11197;SDS011;5655;48.744;9.162;2023-04-06T14:04:10;6.65;;;5.20;;
11197;SDS011;5655;48.744;9.162;2023-04-06T14:06:36;8.73;;;5.60;;
11197;SDS011;5655;48.744;9.162;2023-04-06T14:09:02;6.47;;;4.95;;
11197;SDS011;5655;48.744;9.162;2023-04-06T14:11:27;9.00;;;5.25;;
11197;SDS011;5655;48.744;9.162;2023-04-06T14:13:53;7.57;;;5.45;;
11197;SDS011;5655;48.744;9.162;2023-04-06T14:16:18;5.75;;;4.63;;
11197;SDS011;5655;48.744;9.162;2023-04-06T14:18:44;7.13;;;5.07;;
11197;SDS011;5655;48.744;9.162;2023-04-06T14:21:10;7.10;;;5.18;;
11197;SDS011;5655;48.744;9.162;2023-04-06T14:23:35;6.18;;;4.95;;
11197;SDS011;5655;48.744;9.162;2023-04-06T14:26:05;6.22;;;4.70;;
11197;SDS011;5655;48.744;9.162;2023-04-06T14:28:32;6.25;;;5.03;;
11197;SDS011;5655;48.744;9.162;2023-04-06T14:31:01;9.60;;;5.15;;
11197;SDS011;5655;48.744;9.162;2023-04-06T14:33:33;7.05;;;5.38;;
11197;SDS011;5655;48.744;9.162;2023-04-06T14:35:59;5.72;;;4.65;;
11197;SDS011;5655;48.744;9.162;2023-04-06T14:38:27;7.90;;;5.68;;
11197;SDS011;5655;48.744;9.162;2023-04-06T14:40:53;6.68;;;5.20;;
11197;SDS011;5655;48.744;9.162;2023-04-06T14:43:20;6.82;;;5.15;;
11197;SDS011;5655;48.744;9.162;2023-04-06T14:45:45;13.23;;;5.72;;
11197;SDS011;5655;48.744;9.162;2023-04-06T14:48:10;6.90;;;5.07;;
11197;SDS011;5655;48.744;9.162;2023-04-06T14:50:37;8.05;;;5.55;;
11197;SDS011;5655;48.744;9.162;2023-04-06T14:53:03;8.02;;;5.68;;
11197;SDS011;5655;48.744;9.162;2023-04-06T14:55:29;9.32;;;5.75;;